METAR Data
IDs: Format: Raw Decoded Include TAF

Data at: 2211 UTC 01 Dec 2021

METAR for:KRZT (Chillicothe/Ross Cnt, OH, US)
Text:KRZT 012155Z AUTO 16008KT 10SM BKN046 BKN050 OVC070 06/05 A2991 RMK AO2 PWINO
Temperature: 6.0°C ( 43°F)
Dewpoint: 5.0°C ( 41°F) [RH = 93%]
Pressure (altimeter):29.91 inches Hg (1013.0 mb)
Winds:from the SSE (160 degrees) at 9 MPH (8 knots; 4.1 m/s)
Visibility:10 or more sm (16+ km)
Ceiling:4600 feet AGL
Clouds: broken clouds at 4600 feet AGL, broken clouds at 5000 feet AGL, overcast cloud deck at 7000 feet AGL
QC Flag:automated observation with no human augmentation